sensor_id;sensor_type;location;lat;lon;timestamp;P1;durP1;ratioP1;P2;durP2;ratioP2
11338;SDS011;5724;42.684;23.252;2022-08-16T00:01:48;14.75;;;13.52;;
11338;SDS011;5724;42.684;23.252;2022-08-16T00:04:14;15.18;;;13.98;;
11338;SDS011;5724;42.684;23.252;2022-08-16T00:06:40;14.48;;;13.40;;
11338;SDS011;5724;42.684;23.252;2022-08-16T00:09:06;15.35;;;14.18;;
11338;SDS011;5724;42.684;23.252;2022-08-16T00:11:32;14.98;;;13.98;;
11338;SDS011;5724;42.684;23.252;2022-08-16T00:13:58;13.60;;;12.70;;
11338;SDS011;5724;42.684;23.252;2022-08-16T00:16:26;14.75;;;13.48;;
11338;SDS011;5724;42.684;23.252;2022-08-16T00:18:52;15.45;;;14.05;;
11338;SDS011;5724;42.684;23.252;2022-08-16T00:21:18;15.80;;;14.30;;
11338;SDS011;5724;42.684;23.252;2022-08-16T00:23:43;15.23;;;14.23;;
11338;SDS011;5724;42.684;23.252;2022-08-16T00:26:09;15.68;;;14.57;;
11338;SDS011;5724;42.684;23.252;2022-08-16T00:28:34;16.15;;;14.63;;
11338;SDS011;5724;42.684;23.252;2022-08-16T00:31:00;16.55;;;15.25;;
11338;SDS011;5724;42.684;23.252;2022-08-16T00:33:25;16.60;;;15.10;;
11338;SDS011;5724;42.684;23.252;2022-08-16T00:35:51;15.80;;;14.63;;
11338;SDS011;5724;42.684;23.252;2022-08-16T00:38:16;15.88;;;14.48;;
11338;SDS011;5724;42.684;23.252;2022-08-16T00:40:43;16.67;;;15.45;;
11338;SDS011;5724;42.684;23.252;2022-08-16T00:43:15;16.10;;;14.93;;
11338;SDS011;5724;42.684;23.252;2022-08-16T00:48:39;16.15;;;14.95;;
11338;SDS011;5724;42.684;23.252;2022-08-16T00:51:06;17.13;;;15.82;;
11338;SDS011;5724;42.684;23.252;2022-08-16T00:53:32;16.70;;;14.93;;
11338;SDS011;5724;42.684;23.252;2022-08-16T00:55:59;16.13;;;14.80;;
11338;SDS011;5724;42.684;23.252;2022-08-16T00:58:29;15.35;;;14.25;;
11338;SDS011;5724;42.684;23.252;2022-08-16T01:00:56;16.02;;;14.80;;
11338;SDS011;5724;42.684;23.252;2022-08-16T01:03:24;15.77;;;14.48;;
11338;SDS011;5724;42.684;23.252;2022-08-16T01:05:51;16.17;;;14.85;;
11338;SDS011;5724;42.684;23.252;2022-08-16T01:08:18;16.20;;;15.10;;
11338;SDS011;5724;42.684;23.252;2022-08-16T01:10:46;17.40;;;15.60;;
11338;SDS011;5724;42.684;23.252;2022-08-16T01:13:21;15.07;;;13.98;;
11338;SDS011;5724;42.684;23.252;2022-08-16T01:15:53;16.08;;;14.73;;
11338;SDS011;5724;42.684;23.252;2022-08-16T01:18:22;14.15;;;13.20;;
11338;SDS011;5724;42.684;23.252;2022-08-16T01:20:55;16.27;;;15.07;;
11338;SDS011;5724;42.684;23.252;2022-08-16T01:26:13;16.02;;;14.32;;
11338;SDS011;5724;42.684;23.252;2022-08-16T01:28:40;16.17;;;15.07;;
11338;SDS011;5724;42.684;23.252;2022-08-16T01:31:07;15.75;;;14.43;;
11338;SDS011;5724;42.684;23.252;2022-08-16T01:33:34;14.75;;;13.55;;
11338;SDS011;5724;42.684;23.252;2022-08-16T01:36:07;15.45;;;14.35;;
11338;SDS011;5724;42.684;23.252;2022-08-16T01:38:35;15.95;;;14.77;;
11338;SDS011;5724;42.684;23.252;2022-08-16T01:41:13;15.60;;;14.50;;
11338;SDS011;5724;42.684;23.252;2022-08-16T01:43:50;15.52;;;14.38;;
11338;SDS011;5724;42.684;23.252;2022-08-16T01:46:25;15.82;;;14.63;;
11338;SDS011;5724;42.684;23.252;2022-08-16T01:49:04;15.00;;;13.80;;
11338;SDS011;5724;42.684;23.252;2022-08-16T01:51:31;15.35;;;14.15;;
11338;SDS011;5724;42.684;23.252;2022-08-16T01:53:57;16.33;;;15.13;;
11338;SDS011;5724;42.684;23.252;2022-08-16T01:56:23;15.70;;;14.43;;
11338;SDS011;5724;42.684;23.252;2022-08-16T01:58:50;14.80;;;13.73;;
11338;SDS011;5724;42.684;23.252;2022-08-16T02:01:20;16.08;;;14.52;;
11338;SDS011;5724;42.684;23.252;2022-08-16T02:03:45;16.20;;;14.88;;
11338;SDS011;5724;42.684;23.252;2022-08-16T02:06:11;16.23;;;14.88;;
11338;SDS011;5724;42.684;23.252;2022-08-16T02:08:36;16.05;;;14.88;;
11338;SDS011;5724;42.684;23.252;2022-08-16T02:11:03;17.10;;;15.82;;
11338;SDS011;5724;42.684;23.252;2022-08-16T02:13:30;16.50;;;15.15;;
11338;SDS011;5724;42.684;23.252;2022-08-16T02:15:56;15.93;;;14.73;;
11338;SDS011;5724;42.684;23.252;2022-08-16T02:18:22;15.55;;;14.25;;
11338;SDS011;5724;42.684;23.252;2022-08-16T02:20:49;15.63;;;14.32;;
11338;SDS011;5724;42.684;23.252;2022-08-16T02:23:17;16.25;;;14.90;;
11338;SDS011;5724;42.684;23.252;2022-08-16T02:25:42;16.05;;;14.77;;
11338;SDS011;5724;42.684;23.252;2022-08-16T02:28:09;15.20;;;14.05;;
11338;SDS011;5724;42.684;23.252;2022-08-16T02:30:34;16.42;;;14.98;;
11338;SDS011;5724;42.684;23.252;2022-08-16T02:33:00;17.63;;;16.13;;
11338;SDS011;5724;42.684;23.252;2022-08-16T02:35:26;15.82;;;14.63;;
11338;SDS011;5724;42.684;23.252;2022-08-16T02:37:52;16.08;;;14.40;;
11338;SDS011;5724;42.684;23.252;2022-08-16T02:40:18;17.52;;;15.88;;
11338;SDS011;5724;42.684;23.252;2022-08-16T02:42:47;16.70;;;15.18;;
11338;SDS011;5724;42.684;23.252;2022-08-16T02:45:13;16.42;;;15.02;;
11338;SDS011;5724;42.684;23.252;2022-08-16T02:47:39;16.02;;;14.48;;
11338;SDS011;5724;42.684;23.252;2022-08-16T02:50:05;15.85;;;14.65;;
11338;SDS011;5724;42.684;23.252;2022-08-16T02:52:32;15.85;;;14.65;;
11338;SDS011;5724;42.684;23.252;2022-08-16T02:54:58;14.85;;;13.65;;
11338;SDS011;5724;42.684;23.252;2022-08-16T02:57:23;14.40;;;13.50;;
11338;SDS011;5724;42.684;23.252;2022-08-16T02:59:49;14.18;;;12.98;;
11338;SDS011;5724;42.684;23.252;2022-08-16T03:02:15;13.82;;;12.82;;
11338;SDS011;5724;42.684;23.252;2022-08-16T03:04:41;14.00;;;13.00;;
11338;SDS011;5724;42.684;23.252;2022-08-16T03:07:07;13.23;;;12.32;;
11338;SDS011;5724;42.684;23.252;2022-08-16T03:09:33;13.00;;;12.10;;
11338;SDS011;5724;42.684;23.252;2022-08-16T03:12:00;13.73;;;12.65;;
11338;SDS011;5724;42.684;23.252;2022-08-16T03:14:26;12.40;;;11.50;;
11338;SDS011;5724;42.684;23.252;2022-08-16T03:16:52;11.73;;;10.93;;
11338;SDS011;5724;42.684;23.252;2022-08-16T03:19:18;11.60;;;10.80;;
11338;SDS011;5724;42.684;23.252;2022-08-16T03:21:44;12.02;;;10.88;;
11338;SDS011;5724;42.684;23.252;2022-08-16T03:24:10;11.77;;;11.07;;
11338;SDS011;5724;42.684;23.252;2022-08-16T03:26:36;11.15;;;10.50;;
11338;SDS011;5724;42.684;23.252;2022-08-16T03:29:01;11.05;;;10.35;;
11338;SDS011;5724;42.684;23.252;2022-08-16T03:31:27;11.82;;;10.98;;
11338;SDS011;5724;42.684;23.252;2022-08-16T03:33:53;10.30;;;9.65;;
11338;SDS011;5724;42.684;23.252;2022-08-16T03:36:18;10.95;;;10.25;;
11338;SDS011;5724;42.684;23.252;2022-08-16T03:38:44;11.05;;;10.27;;
11338;SDS011;5724;42.684;23.252;2022-08-16T03:41:11;11.85;;;10.95;;
11338;SDS011;5724;42.684;23.252;2022-08-16T03:43:36;11.60;;;10.80;;
11338;SDS011;5724;42.684;23.252;2022-08-16T03:46:02;11.63;;;10.95;;
11338;SDS011;5724;42.684;23.252;2022-08-16T03:48:29;11.88;;;10.95;;
11338;SDS011;5724;42.684;23.252;2022-08-16T03:50:59;12.07;;;11.18;;
11338;SDS011;5724;42.684;23.252;2022-08-16T03:53:25;12.07;;;11.07;;
11338;SDS011;5724;42.684;23.252;2022-08-16T03:55:51;12.00;;;10.98;;
11338;SDS011;5724;42.684;23.252;2022-08-16T03:58:17;12.00;;;10.90;;
11338;SDS011;5724;42.684;23.252;2022-08-16T04:00:43;11.00;;;10.30;;
11338;SDS011;5724;42.684;23.252;2022-08-16T04:03:09;12.45;;;11.60;;
11338;SDS011;5724;42.684;23.252;2022-08-16T04:05:36;12.50;;;11.45;;
11338;SDS011;5724;42.684;23.252;2022-08-16T04:08:04;12.77;;;11.90;;
11338;SDS011;5724;42.684;23.252;2022-08-16T04:10:30;13.65;;;12.63;;
11338;SDS011;5724;42.684;23.252;2022-08-16T04:12:56;12.68;;;11.57;;
11338;SDS011;5724;42.684;23.252;2022-08-16T04:15:22;11.73;;;10.93;;
11338;SDS011;5724;42.684;23.252;2022-08-16T04:17:50;11.98;;;11.02;;
11338;SDS011;5724;42.684;23.252;2022-08-16T04:20:15;13.05;;;12.25;;
11338;SDS011;5724;42.684;23.252;2022-08-16T04:22:41;12.18;;;11.18;;
11338;SDS011;5724;42.684;23.252;2022-08-16T04:25:07;13.57;;;12.43;;
11338;SDS011;5724;42.684;23.252;2022-08-16T04:27:34;13.43;;;12.43;;
11338;SDS011;5724;42.684;23.252;2022-08-16T04:29:59;11.93;;;11.02;;
11338;SDS011;5724;42.684;23.252;2022-08-16T04:32:26;13.30;;;12.00;;
11338;SDS011;5724;42.684;23.252;2022-08-16T04:34:51;11.38;;;10.75;;
11338;SDS011;5724;42.684;23.252;2022-08-16T04:37:17;12.52;;;11.50;;
11338;SDS011;5724;42.684;23.252;2022-08-16T04:39:42;12.40;;;11.25;;
11338;SDS011;5724;42.684;23.252;2022-08-16T04:42:08;13.45;;;12.15;;
11338;SDS011;5724;42.684;23.252;2022-08-16T04:44:33;13.85;;;12.73;;
11338;SDS011;5724;42.684;23.252;2022-08-16T04:46:59;13.10;;;12.10;;
11338;SDS011;5724;42.684;23.252;2022-08-16T04:49:24;13.80;;;12.90;;
11338;SDS011;5724;42.684;23.252;2022-08-16T04:51:50;13.98;;;12.82;;
11338;SDS011;5724;42.684;23.252;2022-08-16T04:54:15;14.15;;;12.88;;
11338;SDS011;5724;42.684;23.252;2022-08-16T04:56:41;13.02;;;12.18;;
11338;SDS011;5724;42.684;23.252;2022-08-16T04:59:07;16.35;;;15.15;;
11338;SDS011;5724;42.684;23.252;2022-08-16T05:01:34;17.02;;;15.65;;
11338;SDS011;5724;42.684;23.252;2022-08-16T05:04:00;15.52;;;14.45;;
11338;SDS011;5724;42.684;23.252;2022-08-16T05:06:26;17.38;;;15.90;;
11338;SDS011;5724;42.684;23.252;2022-08-16T05:08:52;15.35;;;14.13;;
11338;SDS011;5724;42.684;23.252;2022-08-16T05:11:17;16.33;;;15.07;;
11338;SDS011;5724;42.684;23.252;2022-08-16T05:13:43;15.73;;;14.52;;
11338;SDS011;5724;42.684;23.252;2022-08-16T05:16:11;16.17;;;14.68;;
11338;SDS011;5724;42.684;23.252;2022-08-16T05:18:40;16.13;;;14.90;;
11338;SDS011;5724;42.684;23.252;2022-08-16T05:21:07;15.00;;;13.90;;
11338;SDS011;5724;42.684;23.252;2022-08-16T05:23:32;15.20;;;13.82;;
11338;SDS011;5724;42.684;23.252;2022-08-16T05:25:58;15.48;;;14.25;;
11338;SDS011;5724;42.684;23.252;2022-08-16T05:28:24;14.60;;;13.48;;
11338;SDS011;5724;42.684;23.252;2022-08-16T05:30:50;16.60;;;15.23;;
11338;SDS011;5724;42.684;23.252;2022-08-16T05:33:16;16.88;;;15.18;;
11338;SDS011;5724;42.684;23.252;2022-08-16T05:35:42;19.73;;;16.20;;
11338;SDS011;5724;42.684;23.252;2022-08-16T05:38:08;13.23;;;12.32;;
11338;SDS011;5724;42.684;23.252;2022-08-16T05:40:33;14.32;;;13.27;;
11338;SDS011;5724;42.684;23.252;2022-08-16T05:42:59;20.40;;;17.83;;
11338;SDS011;5724;42.684;23.252;2022-08-16T05:45:24;19.88;;;18.23;;
11338;SDS011;5724;42.684;23.252;2022-08-16T05:47:50;17.33;;;15.73;;
11338;SDS011;5724;42.684;23.252;2022-08-16T05:50:16;19.77;;;18.00;;
11338;SDS011;5724;42.684;23.252;2022-08-16T05:52:41;18.85;;;17.27;;
11338;SDS011;5724;42.684;23.252;2022-08-16T05:55:07;19.17;;;17.55;;
11338;SDS011;5724;42.684;23.252;2022-08-16T05:57:33;20.95;;;18.83;;
11338;SDS011;5724;42.684;23.252;2022-08-16T05:59:58;20.13;;;18.65;;
11338;SDS011;5724;42.684;23.252;2022-08-16T06:02:24;19.38;;;17.60;;
11338;SDS011;5724;42.684;23.252;2022-08-16T06:04:51;20.58;;;18.60;;
11338;SDS011;5724;42.684;23.252;2022-08-16T06:07:17;19.58;;;17.92;;
11338;SDS011;5724;42.684;23.252;2022-08-16T06:09:43;18.60;;;17.15;;
11338;SDS011;5724;42.684;23.252;2022-08-16T06:12:09;18.25;;;16.75;;
11338;SDS011;5724;42.684;23.252;2022-08-16T06:14:36;17.08;;;15.68;;
11338;SDS011;5724;42.684;23.252;2022-08-16T06:17:01;18.88;;;17.10;;
11338;SDS011;5724;42.684;23.252;2022-08-16T06:19:27;18.10;;;16.70;;
11338;SDS011;5724;42.684;23.252;2022-08-16T06:21:52;18.33;;;16.83;;
11338;SDS011;5724;42.684;23.252;2022-08-16T06:24:18;16.58;;;15.18;;
11338;SDS011;5724;42.684;23.252;2022-08-16T06:26:43;18.90;;;17.40;;
11338;SDS011;5724;42.684;23.252;2022-08-16T06:29:09;18.38;;;16.90;;
11338;SDS011;5724;42.684;23.252;2022-08-16T06:31:34;17.05;;;15.75;;
11338;SDS011;5724;42.684;23.252;2022-08-16T06:34:00;19.10;;;17.17;;
11338;SDS011;5724;42.684;23.252;2022-08-16T06:36:25;18.50;;;16.75;;
11338;SDS011;5724;42.684;23.252;2022-08-16T06:38:52;18.23;;;16.73;;
11338;SDS011;5724;42.684;23.252;2022-08-16T06:41:17;17.48;;;16.02;;
11338;SDS011;5724;42.684;23.252;2022-08-16T06:43:43;18.95;;;17.27;;
11338;SDS011;5724;42.684;23.252;2022-08-16T06:46:20;19.48;;;16.15;;
11338;SDS011;5724;42.684;23.252;2022-08-16T06:49:00;18.05;;;16.50;;
11338;SDS011;5724;42.684;23.252;2022-08-16T06:51:27;18.58;;;16.95;;
11338;SDS011;5724;42.684;23.252;2022-08-16T06:53:52;19.33;;;17.27;;
11338;SDS011;5724;42.684;23.252;2022-08-16T06:56:18;20.35;;;18.40;;
11338;SDS011;5724;42.684;23.252;2022-08-16T06:58:44;20.23;;;18.13;;
11338;SDS011;5724;42.684;23.252;2022-08-16T07:01:09;20.30;;;18.35;;
11338;SDS011;5724;42.684;23.252;2022-08-16T07:03:35;19.15;;;17.55;;
11338;SDS011;5724;42.684;23.252;2022-08-16T07:06:00;20.92;;;19.10;;
11338;SDS011;5724;42.684;23.252;2022-08-16T07:08:26;23.30;;;21.33;;
11338;SDS011;5724;42.684;23.252;2022-08-16T07:10:52;23.92;;;21.67;;
11338;SDS011;5724;42.684;23.252;2022-08-16T07:13:18;23.10;;;20.65;;
11338;SDS011;5724;42.684;23.252;2022-08-16T07:15:44;25.58;;;21.38;;
11338;SDS011;5724;42.684;23.252;2022-08-16T07:18:10;21.73;;;19.02;;
11338;SDS011;5724;42.684;23.252;2022-08-16T07:20:37;18.10;;;16.55;;
11338;SDS011;5724;42.684;23.252;2022-08-16T07:23:03;17.35;;;15.77;;
11338;SDS011;5724;42.684;23.252;2022-08-16T07:25:31;16.30;;;15.00;;
11338;SDS011;5724;42.684;23.252;2022-08-16T07:27:57;16.83;;;15.15;;
11338;SDS011;5724;42.684;23.252;2022-08-16T07:30:23;15.27;;;14.20;;
11338;SDS011;5724;42.684;23.252;2022-08-16T07:32:50;13.85;;;12.77;;
11338;SDS011;5724;42.684;23.252;2022-08-16T07:35:16;15.50;;;13.32;;
11338;SDS011;5724;42.684;23.252;2022-08-16T07:37:41;14.50;;;13.02;;
11338;SDS011;5724;42.684;23.252;2022-08-16T07:40:07;13.15;;;11.82;;
11338;SDS011;5724;42.684;23.252;2022-08-16T07:42:34;14.50;;;11.60;;
11338;SDS011;5724;42.684;23.252;2022-08-16T07:44:59;12.38;;;11.50;;
11338;SDS011;5724;42.684;23.252;2022-08-16T07:47:25;12.55;;;11.30;;
11338;SDS011;5724;42.684;23.252;2022-08-16T07:49:50;10.43;;;9.70;;
11338;SDS011;5724;42.684;23.252;2022-08-16T07:52:16;11.18;;;9.85;;
11338;SDS011;5724;42.684;23.252;2022-08-16T07:54:41;11.80;;;10.77;;
11338;SDS011;5724;42.684;23.252;2022-08-16T07:57:06;10.77;;;9.90;;
11338;SDS011;5724;42.684;23.252;2022-08-16T07:59:32;10.55;;;9.70;;
11338;SDS011;5724;42.684;23.252;2022-08-16T08:01:57;10.13;;;9.18;;
11338;SDS011;5724;42.684;23.252;2022-08-16T08:04:23;9.63;;;8.60;;
11338;SDS011;5724;42.684;23.252;2022-08-16T08:06:48;8.40;;;7.85;;
11338;SDS011;5724;42.684;23.252;2022-08-16T08:09:16;8.05;;;7.38;;
11338;SDS011;5724;42.684;23.252;2022-08-16T08:11:42;6.68;;;6.35;;
11338;SDS011;5724;42.684;23.252;2022-08-16T08:14:09;7.30;;;6.70;;
11338;SDS011;5724;42.684;23.252;2022-08-16T08:16:36;7.10;;;6.70;;
11338;SDS011;5724;42.684;23.252;2022-08-16T08:19:02;7.32;;;6.78;;
11338;SDS011;5724;42.684;23.252;2022-08-16T08:21:29;6.07;;;5.78;;
11338;SDS011;5724;42.684;23.252;2022-08-16T08:23:56;5.47;;;5.20;;
11338;SDS011;5724;42.684;23.252;2022-08-16T08:26:22;5.80;;;5.57;;
11338;SDS011;5724;42.684;23.252;2022-08-16T08:28:49;4.78;;;4.57;;
11338;SDS011;5724;42.684;23.252;2022-08-16T08:31:15;5.75;;;5.45;;
11338;SDS011;5724;42.684;23.252;2022-08-16T08:33:40;6.28;;;5.97;;
11338;SDS011;5724;42.684;23.252;2022-08-16T08:36:06;5.45;;;5.15;;
11338;SDS011;5724;42.684;23.252;2022-08-16T08:38:38;4.90;;;4.70;;
11338;SDS011;5724;42.684;23.252;2022-08-16T08:41:04;5.43;;;5.22;;
11338;SDS011;5724;42.684;23.252;2022-08-16T08:43:30;5.85;;;5.45;;
11338;SDS011;5724;42.684;23.252;2022-08-16T08:45:55;5.72;;;5.30;;
11338;SDS011;5724;42.684;23.252;2022-08-16T08:48:21;5.35;;;5.05;;
11338;SDS011;5724;42.684;23.252;2022-08-16T08:50:46;5.90;;;5.38;;
11338;SDS011;5724;42.684;23.252;2022-08-16T08:53:13;5.68;;;5.38;;
11338;SDS011;5724;42.684;23.252;2022-08-16T08:55:40;5.97;;;5.50;;
11338;SDS011;5724;42.684;23.252;2022-08-16T08:58:06;5.43;;;5.20;;
11338;SDS011;5724;42.684;23.252;2022-08-16T09:00:32;5.95;;;5.55;;
11338;SDS011;5724;42.684;23.252;2022-08-16T09:02:58;6.03;;;5.63;;
11338;SDS011;5724;42.684;23.252;2022-08-16T09:05:24;5.45;;;5.15;;
11338;SDS011;5724;42.684;23.252;2022-08-16T09:07:51;5.47;;;5.28;;
11338;SDS011;5724;42.684;23.252;2022-08-16T09:10:18;5.75;;;5.35;;
11338;SDS011;5724;42.684;23.252;2022-08-16T09:12:45;5.55;;;5.22;;
11338;SDS011;5724;42.684;23.252;2022-08-16T09:15:12;5.43;;;5.18;;
11338;SDS011;5724;42.684;23.252;2022-08-16T09:17:40;6.05;;;5.40;;
11338;SDS011;5724;42.684;23.252;2022-08-16T09:20:06;6.07;;;5.78;;
11338;SDS011;5724;42.684;23.252;2022-08-16T09:22:33;5.32;;;5.10;;
11338;SDS011;5724;42.684;23.252;2022-08-16T09:25:00;6.10;;;5.75;;
11338;SDS011;5724;42.684;23.252;2022-08-16T09:27:25;5.50;;;5.15;;
11338;SDS011;5724;42.684;23.252;2022-08-16T09:29:52;5.93;;;5.57;;
11338;SDS011;5724;42.684;23.252;2022-08-16T09:32:18;6.22;;;5.80;;
11338;SDS011;5724;42.684;23.252;2022-08-16T09:34:43;5.55;;;5.22;;
11338;SDS011;5724;42.684;23.252;2022-08-16T09:37:09;5.45;;;5.15;;
11338;SDS011;5724;42.684;23.252;2022-08-16T09:39:37;5.63;;;5.20;;
11338;SDS011;5724;42.684;23.252;2022-08-16T09:42:02;5.53;;;5.20;;
11338;SDS011;5724;42.684;23.252;2022-08-16T09:44:28;5.90;;;5.40;;
11338;SDS011;5724;42.684;23.252;2022-08-16T09:46:54;5.78;;;5.47;;
11338;SDS011;5724;42.684;23.252;2022-08-16T09:49:21;6.00;;;5.50;;
11338;SDS011;5724;42.684;23.252;2022-08-16T09:51:48;5.25;;;4.95;;
11338;SDS011;5724;42.684;23.252;2022-08-16T09:54:17;5.30;;;5.10;;
11338;SDS011;5724;42.684;23.252;2022-08-16T09:56:44;5.40;;;5.10;;
11338;SDS011;5724;42.684;23.252;2022-08-16T09:59:09;5.68;;;5.38;;
11338;SDS011;5724;42.684;23.252;2022-08-16T10:01:36;6.13;;;5.63;;
11338;SDS011;5724;42.684;23.252;2022-08-16T10:04:03;5.40;;;5.15;;
11338;SDS011;5724;42.684;23.252;2022-08-16T10:06:30;5.57;;;5.28;;
11338;SDS011;5724;42.684;23.252;2022-08-16T10:08:55;5.60;;;5.28;;
11338;SDS011;5724;42.684;23.252;2022-08-16T10:11:21;5.72;;;5.43;;
11338;SDS011;5724;42.684;23.252;2022-08-16T10:14:05;5.97;;;5.53;;
11338;SDS011;5724;42.684;23.252;2022-08-16T10:16:30;5.85;;;5.45;;
11338;SDS011;5724;42.684;23.252;2022-08-16T10:18:56;6.13;;;5.60;;
11338;SDS011;5724;42.684;23.252;2022-08-16T10:21:22;5.07;;;4.75;;
11338;SDS011;5724;42.684;23.252;2022-08-16T10:23:48;5.15;;;4.85;;
11338;SDS011;5724;42.684;23.252;2022-08-16T10:26:16;5.97;;;5.47;;
11338;SDS011;5724;42.684;23.252;2022-08-16T10:28:42;5.53;;;5.22;;
11338;SDS011;5724;42.684;23.252;2022-08-16T10:31:08;5.82;;;5.53;;
11338;SDS011;5724;42.684;23.252;2022-08-16T10:33:34;6.07;;;5.78;;
11338;SDS011;5724;42.684;23.252;2022-08-16T10:36:02;5.80;;;5.43;;
11338;SDS011;5724;42.684;23.252;2022-08-16T10:38:31;7.97;;;6.15;;
11338;SDS011;5724;42.684;23.252;2022-08-16T10:40:58;7.38;;;6.55;;
11338;SDS011;5724;42.684;23.252;2022-08-16T10:43:24;7.40;;;6.78;;
11338;SDS011;5724;42.684;23.252;2022-08-16T10:45:50;5.68;;;5.30;;
11338;SDS011;5724;42.684;23.252;2022-08-16T10:48:16;6.47;;;6.07;;
11338;SDS011;5724;42.684;23.252;2022-08-16T10:50:42;6.05;;;5.75;;
11338;SDS011;5724;42.684;23.252;2022-08-16T10:53:08;6.05;;;5.70;;
11338;SDS011;5724;42.684;23.252;2022-08-16T10:55:37;5.38;;;4.90;;
11338;SDS011;5724;42.684;23.252;2022-08-16T10:58:04;5.35;;;5.15;;
11338;SDS011;5724;42.684;23.252;2022-08-16T11:00:32;5.47;;;5.07;;
11338;SDS011;5724;42.684;23.252;2022-08-16T11:02:59;6.63;;;6.00;;
11338;SDS011;5724;42.684;23.252;2022-08-16T11:05:27;6.60;;;6.07;;
11338;SDS011;5724;42.684;23.252;2022-08-16T11:07:53;6.45;;;6.15;;
11338;SDS011;5724;42.684;23.252;2022-08-16T11:10:26;6.40;;;5.88;;
11338;SDS011;5724;42.684;23.252;2022-08-16T11:12:58;6.53;;;6.13;;
11338;SDS011;5724;42.684;23.252;2022-08-16T11:15:24;6.28;;;5.88;;
11338;SDS011;5724;42.684;23.252;2022-08-16T11:17:50;6.60;;;6.30;;
11338;SDS011;5724;42.684;23.252;2022-08-16T11:20:17;6.50;;;6.00;;
11338;SDS011;5724;42.684;23.252;2022-08-16T11:22:44;6.35;;;6.00;;
11338;SDS011;5724;42.684;23.252;2022-08-16T11:25:11;6.13;;;5.82;;
11338;SDS011;5724;42.684;23.252;2022-08-16T11:27:38;6.05;;;5.50;;
11338;SDS011;5724;42.684;23.252;2022-08-16T11:30:05;6.43;;;5.90;;
11338;SDS011;5724;42.684;23.252;2022-08-16T11:32:35;6.43;;;5.75;;
11338;SDS011;5724;42.684;23.252;2022-08-16T11:35:03;5.85;;;5.40;;
11338;SDS011;5724;42.684;23.252;2022-08-16T11:37:31;6.63;;;5.97;;
11338;SDS011;5724;42.684;23.252;2022-08-16T11:39:58;7.43;;;5.95;;
11338;SDS011;5724;42.684;23.252;2022-08-16T11:42:24;5.63;;;5.22;;
11338;SDS011;5724;42.684;23.252;2022-08-16T11:44:49;5.85;;;5.10;;
11338;SDS011;5724;42.684;23.252;2022-08-16T11:47:15;9.65;;;5.30;;
11338;SDS011;5724;42.684;23.252;2022-08-16T11:49:40;5.05;;;4.75;;
11338;SDS011;5724;42.684;23.252;2022-08-16T11:52:06;4.78;;;4.57;;
11338;SDS011;5724;42.684;23.252;2022-08-16T11:54:31;5.10;;;4.68;;
11338;SDS011;5724;42.684;23.252;2022-08-16T11:56:58;5.53;;;5.13;;
11338;SDS011;5724;42.684;23.252;2022-08-16T11:59:24;5.32;;;4.93;;
11338;SDS011;5724;42.684;23.252;2022-08-16T12:01:53;4.93;;;4.63;;
11338;SDS011;5724;42.684;23.252;2022-08-16T12:04:19;5.13;;;4.70;;
11338;SDS011;5724;42.684;23.252;2022-08-16T12:06:46;6.03;;;4.85;;
11338;SDS011;5724;42.684;23.252;2022-08-16T12:09:12;5.35;;;4.95;;
11338;SDS011;5724;42.684;23.252;2022-08-16T12:11:37;5.20;;;4.90;;
11338;SDS011;5724;42.684;23.252;2022-08-16T12:14:03;5.95;;;5.50;;
11338;SDS011;5724;42.684;23.252;2022-08-16T12:16:29;5.93;;;5.53;;
11338;SDS011;5724;42.684;23.252;2022-08-16T12:18:55;6.88;;;5.43;;
11338;SDS011;5724;42.684;23.252;2022-08-16T12:21:40;6.00;;;5.60;;
11338;SDS011;5724;42.684;23.252;2022-08-16T12:24:06;5.43;;;4.95;;
11338;SDS011;5724;42.684;23.252;2022-08-16T12:26:32;5.10;;;4.80;;
11338;SDS011;5724;42.684;23.252;2022-08-16T12:28:58;5.97;;;5.03;;
11338;SDS011;5724;42.684;23.252;2022-08-16T12:31:27;5.45;;;5.05;;
11338;SDS011;5724;42.684;23.252;2022-08-16T12:33:53;5.50;;;4.97;;
11338;SDS011;5724;42.684;23.252;2022-08-16T12:36:19;5.65;;;5.13;;
11338;SDS011;5724;42.684;23.252;2022-08-16T12:38:45;5.60;;;5.00;;
11338;SDS011;5724;42.684;23.252;2022-08-16T12:41:11;5.47;;;4.97;;
11338;SDS011;5724;42.684;23.252;2022-08-16T12:43:38;5.25;;;4.75;;
11338;SDS011;5724;42.684;23.252;2022-08-16T12:46:06;5.38;;;4.97;;
11338;SDS011;5724;42.684;23.252;2022-08-16T12:48:34;6.50;;;4.57;;
11338;SDS011;5724;42.684;23.252;2022-08-16T12:51:18;5.15;;;4.75;;
11338;SDS011;5724;42.684;23.252;2022-08-16T12:53:47;4.80;;;4.40;;
11338;SDS011;5724;42.684;23.252;2022-08-16T12:56:15;4.85;;;4.45;;
11338;SDS011;5724;42.684;23.252;2022-08-16T12:58:43;5.20;;;4.70;;
11338;SDS011;5724;42.684;23.252;2022-08-16T13:01:15;5.03;;;4.63;;
11338;SDS011;5724;42.684;23.252;2022-08-16T13:03:42;4.70;;;4.18;;
11338;SDS011;5724;42.684;23.252;2022-08-16T13:06:08;4.90;;;4.47;;
11338;SDS011;5724;42.684;23.252;2022-08-16T13:08:34;4.60;;;4.30;;
11338;SDS011;5724;42.684;23.252;2022-08-16T13:11:00;4.75;;;4.28;;
11338;SDS011;5724;42.684;23.252;2022-08-16T13:13:26;4.03;;;3.75;;
11338;SDS011;5724;42.684;23.252;2022-08-16T13:15:53;7.38;;;3.33;;
11338;SDS011;5724;42.684;23.252;2022-08-16T13:18:21;3.63;;;3.35;;
11338;SDS011;5724;42.684;23.252;2022-08-16T13:20:48;3.05;;;2.85;;
11338;SDS011;5724;42.684;23.252;2022-08-16T13:23:15;4.50;;;2.85;;
11338;SDS011;5724;42.684;23.252;2022-08-16T13:25:43;3.83;;;2.97;;
11338;SDS011;5724;42.684;23.252;2022-08-16T13:28:10;3.90;;;3.17;;
11338;SDS011;5724;42.684;23.252;2022-08-16T13:30:42;5.63;;;2.80;;
11338;SDS011;5724;42.684;23.252;2022-08-16T13:33:10;3.22;;;2.92;;
11338;SDS011;5724;42.684;23.252;2022-08-16T13:35:40;4.13;;;2.60;;
11338;SDS011;5724;42.684;23.252;2022-08-16T13:38:07;3.05;;;2.85;;
11338;SDS011;5724;42.684;23.252;2022-08-16T13:40:33;4.78;;;2.70;;
11338;SDS011;5724;42.684;23.252;2022-08-16T13:42:59;5.65;;;2.70;;
11338;SDS011;5724;42.684;23.252;2022-08-16T13:45:24;3.88;;;3.08;;
11338;SDS011;5724;42.684;23.252;2022-08-16T13:47:50;4.97;;;2.85;;
11338;SDS011;5724;42.684;23.252;2022-08-16T13:50:17;3.13;;;2.75;;
11338;SDS011;5724;42.684;23.252;2022-08-16T13:52:43;3.00;;;2.80;;
11338;SDS011;5724;42.684;23.252;2022-08-16T13:55:09;4.03;;;2.90;;
11338;SDS011;5724;42.684;23.252;2022-08-16T13:57:35;3.03;;;2.70;;
11338;SDS011;5724;42.684;23.252;2022-08-16T14:00:01;3.53;;;3.33;;
11338;SDS011;5724;42.684;23.252;2022-08-16T14:02:28;3.13;;;2.85;;
11338;SDS011;5724;42.684;23.252;2022-08-16T14:04:54;4.07;;;3.00;;
11338;SDS011;5724;42.684;23.252;2022-08-16T14:07:19;3.45;;;3.10;;
11338;SDS011;5724;42.684;23.252;2022-08-16T14:09:45;3.33;;;3.05;;
11338;SDS011;5724;42.684;23.252;2022-08-16T14:14:47;4.85;;;2.80;;
11338;SDS011;5724;42.684;23.252;2022-08-16T14:17:15;3.25;;;2.85;;
11338;SDS011;5724;42.684;23.252;2022-08-16T14:19:41;2.92;;;2.70;;
11338;SDS011;5724;42.684;23.252;2022-08-16T14:22:06;6.07;;;4.40;;
11338;SDS011;5724;42.684;23.252;2022-08-16T14:24:32;4.82;;;3.30;;
11338;SDS011;5724;42.684;23.252;2022-08-16T14:26:57;3.85;;;3.42;;
11338;SDS011;5724;42.684;23.252;2022-08-16T14:29:23;3.25;;;3.00;;
11338;SDS011;5724;42.684;23.252;2022-08-16T14:31:48;3.22;;;2.85;;
11338;SDS011;5724;42.684;23.252;2022-08-16T14:34:14;3.20;;;2.97;;
11338;SDS011;5724;42.684;23.252;2022-08-16T14:36:39;3.00;;;2.80;;
11338;SDS011;5724;42.684;23.252;2022-08-16T14:39:05;4.60;;;3.40;;